sensor_id;sensor_type;location;lat;lon;timestamp;P1;durP1;ratioP1;P2;durP2;ratioP2
4278;SDS011;2153;47.744;10.580;2023-03-22T00:00:23;18.73;;;3.17;;
4278;SDS011;2153;47.744;10.580;2023-03-22T00:02:51;15.70;;;3.60;;
4278;SDS011;2153;47.744;10.580;2023-03-22T00:05:19;13.93;;;3.30;;
4278;SDS011;2153;47.744;10.580;2023-03-22T00:07:46;12.70;;;3.00;;
4278;SDS011;2153;47.744;10.580;2023-03-22T00:10:14;13.07;;;2.80;;
4278;SDS011;2153;47.744;10.580;2023-03-22T00:12:41;16.87;;;3.87;;
4278;SDS011;2153;47.744;10.580;2023-03-22T00:15:08;13.37;;;3.57;;
4278;SDS011;2153;47.744;10.580;2023-03-22T00:17:36;14.13;;;3.23;;
4278;SDS011;2153;47.744;10.580;2023-03-22T00:20:03;13.87;;;3.40;;
4278;SDS011;2153;47.744;10.580;2023-03-22T00:22:32;13.93;;;3.60;;
4278;SDS011;2153;47.744;10.580;2023-03-22T00:24:59;14.80;;;4.00;;
4278;SDS011;2153;47.744;10.580;2023-03-22T00:27:26;12.83;;;3.40;;
4278;SDS011;2153;47.744;10.580;2023-03-22T00:29:53;14.60;;;3.17;;
4278;SDS011;2153;47.744;10.580;2023-03-22T00:32:19;15.50;;;4.50;;
4278;SDS011;2153;47.744;10.580;2023-03-22T00:34:46;15.50;;;3.93;;
4278;SDS011;2153;47.744;10.580;2023-03-22T00:37:13;13.00;;;3.13;;
4278;SDS011;2153;47.744;10.580;2023-03-22T00:39:43;13.80;;;3.93;;
4278;SDS011;2153;47.744;10.580;2023-03-22T00:42:10;13.83;;;3.17;;
4278;SDS011;2153;47.744;10.580;2023-03-22T00:44:37;12.70;;;2.63;;
4278;SDS011;2153;47.744;10.580;2023-03-22T00:47:03;13.83;;;3.00;;
4278;SDS011;2153;47.744;10.580;2023-03-22T00:49:30;17.30;;;2.80;;
4278;SDS011;2153;47.744;10.580;2023-03-22T00:51:59;12.80;;;2.23;;
4278;SDS011;2153;47.744;10.580;2023-03-22T00:54:25;13.47;;;2.37;;
4278;SDS011;2153;47.744;10.580;2023-03-22T00:56:54;17.50;;;2.93;;
4278;SDS011;2153;47.744;10.580;2023-03-22T00:59:20;17.80;;;2.57;;
4278;SDS011;2153;47.744;10.580;2023-03-22T01:01:47;13.93;;;2.70;;
4278;SDS011;2153;47.744;10.580;2023-03-22T01:04:14;13.23;;;2.30;;
4278;SDS011;2153;47.744;10.580;2023-03-22T01:06:42;12.97;;;2.30;;
4278;SDS011;2153;47.744;10.580;2023-03-22T01:09:11;14.50;;;2.53;;
4278;SDS011;2153;47.744;10.580;2023-03-22T01:11:38;12.70;;;3.00;;
4278;SDS011;2153;47.744;10.580;2023-03-22T01:14:07;12.20;;;2.60;;
4278;SDS011;2153;47.744;10.580;2023-03-22T01:16:34;12.90;;;3.27;;
4278;SDS011;2153;47.744;10.580;2023-03-22T01:19:01;13.47;;;2.50;;
4278;SDS011;2153;47.744;10.580;2023-03-22T01:21:28;13.77;;;3.00;;
4278;SDS011;2153;47.744;10.580;2023-03-22T01:23:55;13.80;;;2.67;;
4278;SDS011;2153;47.744;10.580;2023-03-22T01:26:22;12.20;;;2.03;;
4278;SDS011;2153;47.744;10.580;2023-03-22T01:28:48;12.80;;;2.30;;
4278;SDS011;2153;47.744;10.580;2023-03-22T01:31:16;12.53;;;2.40;;
4278;SDS011;2153;47.744;10.580;2023-03-22T01:33:43;12.63;;;2.23;;
4278;SDS011;2153;47.744;10.580;2023-03-22T01:36:10;12.50;;;2.50;;
4278;SDS011;2153;47.744;10.580;2023-03-22T01:38:37;12.90;;;2.10;;
4278;SDS011;2153;47.744;10.580;2023-03-22T01:41:04;11.70;;;1.80;;
4278;SDS011;2153;47.744;10.580;2023-03-22T01:43:31;15.30;;;2.47;;
4278;SDS011;2153;47.744;10.580;2023-03-22T01:45:57;13.73;;;2.37;;
4278;SDS011;2153;47.744;10.580;2023-03-22T01:48:26;16.37;;;2.40;;
4278;SDS011;2153;47.744;10.580;2023-03-22T01:50:59;12.87;;;2.40;;
4278;SDS011;2153;47.744;10.580;2023-03-22T01:53:31;14.87;;;2.70;;
4278;SDS011;2153;47.744;10.580;2023-03-22T01:56:02;12.77;;;2.87;;
4278;SDS011;2153;47.744;10.580;2023-03-22T01:58:29;17.73;;;2.70;;
4278;SDS011;2153;47.744;10.580;2023-03-22T02:00:59;12.93;;;1.80;;
4278;SDS011;2153;47.744;10.580;2023-03-22T02:03:29;14.70;;;2.13;;
4278;SDS011;2153;47.744;10.580;2023-03-22T02:06:01;11.67;;;1.80;;
4278;SDS011;2153;47.744;10.580;2023-03-22T02:08:29;12.07;;;1.97;;
4278;SDS011;2153;47.744;10.580;2023-03-22T02:10:57;13.50;;;1.87;;
4278;SDS011;2153;47.744;10.580;2023-03-22T02:13:27;12.87;;;2.30;;
4278;SDS011;2153;47.744;10.580;2023-03-22T02:16:06;12.10;;;1.90;;
4278;SDS011;2153;47.744;10.580;2023-03-22T02:18:48;16.40;;;1.97;;
4278;SDS011;2153;47.744;10.580;2023-03-22T02:21:36;17.27;;;2.50;;
4278;SDS011;2153;47.744;10.580;2023-03-22T02:24:44;14.23;;;2.23;;
4278;SDS011;2153;47.744;10.580;2023-03-22T02:27:34;12.53;;;2.53;;
4278;SDS011;2153;47.744;10.580;2023-03-22T02:30:20;15.13;;;2.27;;
4278;SDS011;2153;47.744;10.580;2023-03-22T02:33:00;11.43;;;1.90;;
4278;SDS011;2153;47.744;10.580;2023-03-22T02:38:43;13.13;;;2.30;;
4278;SDS011;2153;47.744;10.580;2023-03-22T02:41:23;12.90;;;2.43;;
4278;SDS011;2153;47.744;10.580;2023-03-22T02:44:00;11.97;;;2.10;;
4278;SDS011;2153;47.744;10.580;2023-03-22T02:46:33;13.83;;;2.20;;
4278;SDS011;2153;47.744;10.580;2023-03-22T02:49:05;19.43;;;2.33;;
4278;SDS011;2153;47.744;10.580;2023-03-22T02:51:42;15.57;;;2.20;;
4278;SDS011;2153;47.744;10.580;2023-03-22T02:54:15;11.87;;;1.87;;
4278;SDS011;2153;47.744;10.580;2023-03-22T02:56:47;12.70;;;2.10;;
4278;SDS011;2153;47.744;10.580;2023-03-22T02:59:18;12.00;;;2.30;;
4278;SDS011;2153;47.744;10.580;2023-03-22T03:01:48;16.90;;;1.83;;
4278;SDS011;2153;47.744;10.580;2023-03-22T03:04:18;14.40;;;2.27;;
4278;SDS011;2153;47.744;10.580;2023-03-22T03:06:50;11.63;;;2.17;;
4278;SDS011;2153;47.744;10.580;2023-03-22T03:09:20;16.73;;;1.90;;
4278;SDS011;2153;47.744;10.580;2023-03-22T03:11:48;11.87;;;1.90;;
4278;SDS011;2153;47.744;10.580;2023-03-22T03:14:23;13.27;;;2.83;;
4278;SDS011;2153;47.744;10.580;2023-03-22T03:16:54;12.43;;;2.40;;
4278;SDS011;2153;47.744;10.580;2023-03-22T03:19:39;13.00;;;2.10;;
4278;SDS011;2153;47.744;10.580;2023-03-22T03:22:15;11.67;;;2.10;;
4278;SDS011;2153;47.744;10.580;2023-03-22T03:24:54;12.00;;;1.73;;
4278;SDS011;2153;47.744;10.580;2023-03-22T03:27:26;11.93;;;2.00;;
4278;SDS011;2153;47.744;10.580;2023-03-22T03:29:58;11.93;;;2.10;;
4278;SDS011;2153;47.744;10.580;2023-03-22T03:32:28;13.97;;;2.10;;
4278;SDS011;2153;47.744;10.580;2023-03-22T03:35:03;11.90;;;1.83;;
4278;SDS011;2153;47.744;10.580;2023-03-22T03:37:33;11.27;;;1.70;;
4278;SDS011;2153;47.744;10.580;2023-03-22T03:40:05;13.13;;;2.33;;
4278;SDS011;2153;47.744;10.580;2023-03-22T03:42:35;12.03;;;2.33;;
4278;SDS011;2153;47.744;10.580;2023-03-22T03:45:03;11.70;;;1.90;;
4278;SDS011;2153;47.744;10.580;2023-03-22T03:47:32;13.30;;;2.00;;
4278;SDS011;2153;47.744;10.580;2023-03-22T03:50:00;11.00;;;1.73;;
4278;SDS011;2153;47.744;10.580;2023-03-22T03:52:27;14.87;;;1.67;;
4278;SDS011;2153;47.744;10.580;2023-03-22T03:54:54;12.57;;;1.90;;
4278;SDS011;2153;47.744;10.580;2023-03-22T03:57:22;11.80;;;2.00;;
4278;SDS011;2153;47.744;10.580;2023-03-22T03:59:49;11.53;;;1.70;;
4278;SDS011;2153;47.744;10.580;2023-03-22T04:02:15;11.20;;;1.50;;
4278;SDS011;2153;47.744;10.580;2023-03-22T04:04:42;13.20;;;2.57;;
4278;SDS011;2153;47.744;10.580;2023-03-22T04:07:09;10.77;;;1.53;;
4278;SDS011;2153;47.744;10.580;2023-03-22T04:09:36;11.50;;;1.63;;
4278;SDS011;2153;47.744;10.580;2023-03-22T04:12:04;14.17;;;1.60;;
4278;SDS011;2153;47.744;10.580;2023-03-22T04:14:35;12.83;;;1.70;;
4278;SDS011;2153;47.744;10.580;2023-03-22T04:17:01;11.40;;;1.93;;
4278;SDS011;2153;47.744;10.580;2023-03-22T04:19:28;13.13;;;1.73;;
4278;SDS011;2153;47.744;10.580;2023-03-22T04:21:56;12.47;;;2.20;;
4278;SDS011;2153;47.744;10.580;2023-03-22T04:24:24;15.03;;;2.23;;
4278;SDS011;2153;47.744;10.580;2023-03-22T04:26:51;12.13;;;1.90;;
4278;SDS011;2153;47.744;10.580;2023-03-22T04:29:18;16.40;;;2.53;;
4278;SDS011;2153;47.744;10.580;2023-03-22T04:31:47;14.93;;;2.07;;
4278;SDS011;2153;47.744;10.580;2023-03-22T04:34:14;12.97;;;1.70;;
4278;SDS011;2153;47.744;10.580;2023-03-22T04:36:41;11.63;;;2.00;;
4278;SDS011;2153;47.744;10.580;2023-03-22T04:39:10;11.73;;;1.93;;
4278;SDS011;2153;47.744;10.580;2023-03-22T04:41:37;16.63;;;2.27;;
4278;SDS011;2153;47.744;10.580;2023-03-22T04:44:04;12.43;;;2.40;;
4278;SDS011;2153;47.744;10.580;2023-03-22T04:46:32;13.50;;;2.47;;
4278;SDS011;2153;47.744;10.580;2023-03-22T04:49:02;14.10;;;2.47;;
4278;SDS011;2153;47.744;10.580;2023-03-22T04:51:30;11.30;;;1.80;;
4278;SDS011;2153;47.744;10.580;2023-03-22T04:53:57;10.93;;;1.60;;
4278;SDS011;2153;47.744;10.580;2023-03-22T04:56:24;11.47;;;1.90;;
4278;SDS011;2153;47.744;10.580;2023-03-22T04:58:51;12.53;;;2.30;;
4278;SDS011;2153;47.744;10.580;2023-03-22T05:01:17;11.67;;;1.80;;
4278;SDS011;2153;47.744;10.580;2023-03-22T05:03:44;12.13;;;1.97;;
4278;SDS011;2153;47.744;10.580;2023-03-22T05:06:13;11.13;;;1.63;;
4278;SDS011;2153;47.744;10.580;2023-03-22T05:08:40;12.93;;;2.10;;
4278;SDS011;2153;47.744;10.580;2023-03-22T05:11:07;13.30;;;2.13;;
4278;SDS011;2153;47.744;10.580;2023-03-22T05:13:35;11.67;;;1.97;;
4278;SDS011;2153;47.744;10.580;2023-03-22T05:16:02;11.00;;;1.70;;
4278;SDS011;2153;47.744;10.580;2023-03-22T05:18:30;12.00;;;2.30;;
4278;SDS011;2153;47.744;10.580;2023-03-22T05:20:58;13.60;;;2.00;;
4278;SDS011;2153;47.744;10.580;2023-03-22T05:23:29;11.67;;;2.23;;
4278;SDS011;2153;47.744;10.580;2023-03-22T05:25:55;11.70;;;2.23;;
4278;SDS011;2153;47.744;10.580;2023-03-22T05:28:26;11.30;;;1.90;;
4278;SDS011;2153;47.744;10.580;2023-03-22T05:30:52;16.83;;;2.90;;
4278;SDS011;2153;47.744;10.580;2023-03-22T05:33:19;18.73;;;2.50;;
4278;SDS011;2153;47.744;10.580;2023-03-22T05:35:47;16.17;;;2.40;;
4278;SDS011;2153;47.744;10.580;2023-03-22T05:38:15;16.53;;;2.27;;
4278;SDS011;2153;47.744;10.580;2023-03-22T05:40:43;12.50;;;2.00;;
4278;SDS011;2153;47.744;10.580;2023-03-22T05:43:10;11.70;;;2.40;;
4278;SDS011;2153;47.744;10.580;2023-03-22T05:45:37;13.23;;;2.57;;
4278;SDS011;2153;47.744;10.580;2023-03-22T05:48:04;15.07;;;2.60;;
4278;SDS011;2153;47.744;10.580;2023-03-22T05:50:31;12.63;;;2.50;;
4278;SDS011;2153;47.744;10.580;2023-03-22T05:52:58;11.60;;;2.10;;
4278;SDS011;2153;47.744;10.580;2023-03-22T05:55:25;17.17;;;2.50;;
4278;SDS011;2153;47.744;10.580;2023-03-22T05:57:55;12.73;;;1.93;;
4278;SDS011;2153;47.744;10.580;2023-03-22T06:00:22;11.70;;;2.10;;
4278;SDS011;2153;47.744;10.580;2023-03-22T06:02:50;12.53;;;2.60;;
4278;SDS011;2153;47.744;10.580;2023-03-22T06:05:20;14.87;;;2.33;;
4278;SDS011;2153;47.744;10.580;2023-03-22T06:07:47;12.33;;;2.17;;
4278;SDS011;2153;47.744;10.580;2023-03-22T06:10:14;11.53;;;2.10;;
4278;SDS011;2153;47.744;10.580;2023-03-22T06:12:41;14.53;;;1.93;;
4278;SDS011;2153;47.744;10.580;2023-03-22T06:15:10;18.70;;;2.20;;
4278;SDS011;2153;47.744;10.580;2023-03-22T06:17:37;25.20;;;1.70;;
4278;SDS011;2153;47.744;10.580;2023-03-22T06:20:05;12.30;;;1.83;;
4278;SDS011;2153;47.744;10.580;2023-03-22T06:22:35;15.93;;;2.20;;
4278;SDS011;2153;47.744;10.580;2023-03-22T06:25:02;13.00;;;1.80;;
4278;SDS011;2153;47.744;10.580;2023-03-22T06:27:29;14.37;;;2.17;;
4278;SDS011;2153;47.744;10.580;2023-03-22T06:29:56;11.60;;;2.17;;
4278;SDS011;2153;47.744;10.580;2023-03-22T06:32:24;13.53;;;2.57;;
4278;SDS011;2153;47.744;10.580;2023-03-22T06:34:51;12.50;;;2.07;;
4278;SDS011;2153;47.744;10.580;2023-03-22T06:37:18;11.90;;;2.00;;
4278;SDS011;2153;47.744;10.580;2023-03-22T06:39:45;14.63;;;2.30;;
4278;SDS011;2153;47.744;10.580;2023-03-22T06:42:12;13.50;;;2.53;;
4278;SDS011;2153;47.744;10.580;2023-03-22T06:44:39;13.10;;;2.40;;
4278;SDS011;2153;47.744;10.580;2023-03-22T06:47:07;14.20;;;2.67;;
4278;SDS011;2153;47.744;10.580;2023-03-22T06:49:36;14.67;;;2.83;;
4278;SDS011;2153;47.744;10.580;2023-03-22T06:52:03;14.80;;;2.13;;
4278;SDS011;2153;47.744;10.580;2023-03-22T06:54:30;13.97;;;2.10;;
4278;SDS011;2153;47.744;10.580;2023-03-22T06:56:56;13.40;;;2.93;;
4278;SDS011;2153;47.744;10.580;2023-03-22T06:59:23;16.90;;;2.57;;
4278;SDS011;2153;47.744;10.580;2023-03-22T07:01:50;15.90;;;3.10;;
4278;SDS011;2153;47.744;10.580;2023-03-22T07:04:17;18.13;;;2.70;;
4278;SDS011;2153;47.744;10.580;2023-03-22T07:06:48;15.07;;;2.60;;
4278;SDS011;2153;47.744;10.580;2023-03-22T07:09:16;14.30;;;2.30;;
4278;SDS011;2153;47.744;10.580;2023-03-22T07:11:43;18.00;;;3.97;;
4278;SDS011;2153;47.744;10.580;2023-03-22T07:14:10;17.10;;;3.00;;
4278;SDS011;2153;47.744;10.580;2023-03-22T07:16:37;18.50;;;2.80;;
4278;SDS011;2153;47.744;10.580;2023-03-22T07:19:03;13.43;;;2.90;;
4278;SDS011;2153;47.744;10.580;2023-03-22T07:21:30;15.73;;;4.63;;
4278;SDS011;2153;47.744;10.580;2023-03-22T07:23:59;13.30;;;3.00;;
4278;SDS011;2153;47.744;10.580;2023-03-22T07:26:25;17.87;;;4.07;;
4278;SDS011;2153;47.744;10.580;2023-03-22T07:28:54;15.10;;;4.30;;
4278;SDS011;2153;47.744;10.580;2023-03-22T07:31:21;17.17;;;4.83;;
4278;SDS011;2153;47.744;10.580;2023-03-22T07:33:48;20.53;;;4.73;;
4278;SDS011;2153;47.744;10.580;2023-03-22T07:36:16;16.07;;;4.70;;
4278;SDS011;2153;47.744;10.580;2023-03-22T07:38:47;14.30;;;3.90;;
4278;SDS011;2153;47.744;10.580;2023-03-22T07:41:16;14.80;;;4.37;;
4278;SDS011;2153;47.744;10.580;2023-03-22T07:43:43;16.30;;;4.03;;
4278;SDS011;2153;47.744;10.580;2023-03-22T07:46:10;15.23;;;4.03;;
4278;SDS011;2153;47.744;10.580;2023-03-22T07:48:37;19.50;;;5.73;;
4278;SDS011;2153;47.744;10.580;2023-03-22T07:51:05;17.87;;;5.60;;
4278;SDS011;2153;47.744;10.580;2023-03-22T07:53:32;16.57;;;4.40;;
4278;SDS011;2153;47.744;10.580;2023-03-22T07:55:58;24.43;;;5.07;;
4278;SDS011;2153;47.744;10.580;2023-03-22T07:58:26;14.07;;;3.93;;
4278;SDS011;2153;47.744;10.580;2023-03-22T08:00:53;24.53;;;7.60;;
4278;SDS011;2153;47.744;10.580;2023-03-22T08:03:20;14.60;;;3.63;;
4278;SDS011;2153;47.744;10.580;2023-03-22T08:05:47;14.20;;;3.37;;
4278;SDS011;2153;47.744;10.580;2023-03-22T08:08:15;15.17;;;3.73;;
4278;SDS011;2153;47.744;10.580;2023-03-22T08:10:42;16.13;;;3.13;;
4278;SDS011;2153;47.744;10.580;2023-03-22T08:13:14;14.83;;;2.77;;
4278;SDS011;2153;47.744;10.580;2023-03-22T08:15:42;13.70;;;2.90;;
4278;SDS011;2153;47.744;10.580;2023-03-22T08:18:09;13.40;;;3.00;;
4278;SDS011;2153;47.744;10.580;2023-03-22T08:20:36;17.93;;;2.60;;
4278;SDS011;2153;47.744;10.580;2023-03-22T08:23:03;12.47;;;2.70;;
4278;SDS011;2153;47.744;10.580;2023-03-22T08:25:31;13.70;;;2.90;;
4278;SDS011;2153;47.744;10.580;2023-03-22T08:27:59;13.50;;;2.80;;
4278;SDS011;2153;47.744;10.580;2023-03-22T08:30:25;14.37;;;2.50;;
4278;SDS011;2153;47.744;10.580;2023-03-22T08:32:54;16.10;;;3.30;;
4278;SDS011;2153;47.744;10.580;2023-03-22T08:35:20;12.90;;;2.60;;
4278;SDS011;2153;47.744;10.580;2023-03-22T08:37:47;33.90;;;13.27;;
4278;SDS011;2153;47.744;10.580;2023-03-22T08:40:17;15.53;;;3.73;;
4278;SDS011;2153;47.744;10.580;2023-03-22T11:54:12;12.80;;;2.50;;
4278;SDS011;2153;47.744;10.580;2023-03-22T11:56:45;12.70;;;2.80;;
4278;SDS011;2153;47.744;10.580;2023-03-22T11:59:15;12.80;;;2.40;;
4278;SDS011;2153;47.744;10.580;2023-03-22T12:01:47;13.77;;;2.70;;
4278;SDS011;2153;47.744;10.580;2023-03-22T12:04:17;14.13;;;2.40;;
4278;SDS011;2153;47.744;10.580;2023-03-22T12:06:50;13.00;;;2.27;;
4278;SDS011;2153;47.744;10.580;2023-03-22T12:09:24;14.97;;;2.70;;
4278;SDS011;2153;47.744;10.580;2023-03-22T12:11:59;20.30;;;2.30;;
4278;SDS011;2153;47.744;10.580;2023-03-22T12:14:31;12.60;;;2.10;;
4278;SDS011;2153;47.744;10.580;2023-03-22T12:17:03;12.37;;;2.57;;
4278;SDS011;2153;47.744;10.580;2023-03-22T12:19:38;13.83;;;1.83;;
4278;SDS011;2153;47.744;10.580;2023-03-22T12:22:14;11.03;;;1.40;;
4278;SDS011;2153;47.744;10.580;2023-03-22T12:24:45;12.50;;;2.10;;
4278;SDS011;2153;47.744;10.580;2023-03-22T12:27:13;11.23;;;1.83;;
4278;SDS011;2153;47.744;10.580;2023-03-22T12:29:43;13.63;;;2.20;;
4278;SDS011;2153;47.744;10.580;2023-03-22T12:32:14;16.83;;;2.33;;
4278;SDS011;2153;47.744;10.580;2023-03-22T12:34:47;12.60;;;2.63;;
4278;SDS011;2153;47.744;10.580;2023-03-22T12:37:19;12.27;;;2.27;;
4278;SDS011;2153;47.744;10.580;2023-03-22T12:39:50;11.73;;;2.03;;
4278;SDS011;2153;47.744;10.580;2023-03-22T12:42:22;11.60;;;1.70;;
4278;SDS011;2153;47.744;10.580;2023-03-22T12:44:55;12.03;;;1.67;;
4278;SDS011;2153;47.744;10.580;2023-03-22T12:47:27;13.83;;;1.80;;
4278;SDS011;2153;47.744;10.580;2023-03-22T12:49:58;12.73;;;2.10;;
4278;SDS011;2153;47.744;10.580;2023-03-22T12:52:32;12.13;;;1.77;;
4278;SDS011;2153;47.744;10.580;2023-03-22T12:55:03;11.07;;;1.23;;
4278;SDS011;2153;47.744;10.580;2023-03-22T12:57:31;12.00;;;1.43;;
4278;SDS011;2153;47.744;10.580;2023-03-22T12:59:58;12.40;;;1.40;;
4278;SDS011;2153;47.744;10.580;2023-03-22T13:02:34;10.90;;;1.20;;
4278;SDS011;2153;47.744;10.580;2023-03-22T13:05:02;11.93;;;1.20;;
4278;SDS011;2153;47.744;10.580;2023-03-22T13:07:41;12.00;;;1.33;;
4278;SDS011;2153;47.744;10.580;2023-03-22T13:13:09;11.77;;;1.50;;
4278;SDS011;2153;47.744;10.580;2023-03-22T13:15:40;11.77;;;1.57;;
4278;SDS011;2153;47.744;10.580;2023-03-22T13:18:27;11.67;;;1.03;;
4278;SDS011;2153;47.744;10.580;2023-03-22T13:21:09;11.67;;;1.00;;
4278;SDS011;2153;47.744;10.580;2023-03-22T13:26:29;16.77;;;1.30;;
4278;SDS011;2153;47.744;10.580;2023-03-22T13:29:00;13.67;;;1.47;;
4278;SDS011;2153;47.744;10.580;2023-03-22T13:31:36;12.10;;;1.90;;
4278;SDS011;2153;47.744;10.580;2023-03-22T13:34:15;11.30;;;1.50;;
4278;SDS011;2153;47.744;10.580;2023-03-22T13:36:51;12.60;;;2.10;;
4278;SDS011;2153;47.744;10.580;2023-03-22T13:39:21;12.40;;;1.63;;
4278;SDS011;2153;47.744;10.580;2023-03-22T13:42:08;12.60;;;2.30;;
4278;SDS011;2153;47.744;10.580;2023-03-22T13:44:45;13.13;;;2.13;;
4278;SDS011;2153;47.744;10.580;2023-03-22T13:47:33;11.80;;;2.10;;
4278;SDS011;2153;47.744;10.580;2023-03-22T13:50:06;13.20;;;2.40;;
4278;SDS011;2153;47.744;10.580;2023-03-22T13:52:40;13.50;;;2.13;;
4278;SDS011;2153;47.744;10.580;2023-03-22T13:58:07;13.90;;;2.00;;
4278;SDS011;2153;47.744;10.580;2023-03-22T14:00:36;12.60;;;2.27;;
4278;SDS011;2153;47.744;10.580;2023-03-22T14:03:10;15.20;;;2.33;;
4278;SDS011;2153;47.744;10.580;2023-03-22T14:05:40;12.00;;;2.17;;
4278;SDS011;2153;47.744;10.580;2023-03-22T14:08:13;12.90;;;2.50;;
4278;SDS011;2153;47.744;10.580;2023-03-22T14:10:49;12.20;;;1.87;;
4278;SDS011;2153;47.744;10.580;2023-03-22T14:13:21;12.57;;;2.53;;
4278;SDS011;2153;47.744;10.580;2023-03-22T14:15:56;14.00;;;2.67;;
4278;SDS011;2153;47.744;10.580;2023-03-22T14:18:28;19.50;;;2.47;;
4278;SDS011;2153;47.744;10.580;2023-03-22T14:20:56;13.00;;;2.43;;
4278;SDS011;2153;47.744;10.580;2023-03-22T14:23:25;14.23;;;2.50;;
4278;SDS011;2153;47.744;10.580;2023-03-22T14:25:59;13.03;;;2.50;;
4278;SDS011;2153;47.744;10.580;2023-03-22T14:28:31;12.43;;;2.03;;
4278;SDS011;2153;47.744;10.580;2023-03-22T14:31:00;13.97;;;2.47;;
4278;SDS011;2153;47.744;10.580;2023-03-22T14:33:28;13.43;;;2.50;;
4278;SDS011;2153;47.744;10.580;2023-03-22T14:35:56;12.50;;;2.00;;
4278;SDS011;2153;47.744;10.580;2023-03-22T14:38:26;13.20;;;2.10;;
4278;SDS011;2153;47.744;10.580;2023-03-22T14:41:08;12.50;;;2.13;;
4278;SDS011;2153;47.744;10.580;2023-03-22T14:43:37;12.03;;;2.07;;
4278;SDS011;2153;47.744;10.580;2023-03-22T14:46:06;12.60;;;2.20;;
4278;SDS011;2153;47.744;10.580;2023-03-22T14:48:40;14.20;;;2.80;;
4278;SDS011;2153;47.744;10.580;2023-03-22T14:51:12;15.47;;;3.03;;
4278;SDS011;2153;47.744;10.580;2023-03-22T14:53:43;14.40;;;2.63;;
4278;SDS011;2153;47.744;10.580;2023-03-22T14:56:14;14.67;;;2.97;;
4278;SDS011;2153;47.744;10.580;2023-03-22T14:58:43;17.80;;;2.87;;
4278;SDS011;2153;47.744;10.580;2023-03-22T15:01:13;12.50;;;2.20;;
4278;SDS011;2153;47.744;10.580;2023-03-22T15:03:43;14.20;;;2.50;;
4278;SDS011;2153;47.744;10.580;2023-03-22T15:06:12;13.43;;;2.30;;
4278;SDS011;2153;47.744;10.580;2023-03-22T15:08:39;12.27;;;2.10;;
4278;SDS011;2153;47.744;10.580;2023-03-22T15:11:11;13.47;;;2.63;;
4278;SDS011;2153;47.744;10.580;2023-03-22T15:13:41;18.27;;;2.83;;
4278;SDS011;2153;47.744;10.580;2023-03-22T15:18:42;12.53;;;2.37;;
4278;SDS011;2153;47.744;10.580;2023-03-22T15:21:09;12.70;;;2.53;;
4278;SDS011;2153;47.744;10.580;2023-03-22T15:23:37;12.90;;;2.33;;
4278;SDS011;2153;47.744;10.580;2023-03-22T15:26:06;14.90;;;2.50;;
4278;SDS011;2153;47.744;10.580;2023-03-22T15:28:38;12.43;;;2.30;;
4278;SDS011;2153;47.744;10.580;2023-03-22T15:31:17;15.70;;;2.90;;
4278;SDS011;2153;47.744;10.580;2023-03-22T15:33:50;14.90;;;3.13;;
4278;SDS011;2153;47.744;10.580;2023-03-22T15:36:18;13.97;;;3.20;;
4278;SDS011;2153;47.744;10.580;2023-03-22T15:38:46;13.30;;;2.80;;
4278;SDS011;2153;47.744;10.580;2023-03-22T15:41:18;13.73;;;3.23;;
4278;SDS011;2153;47.744;10.580;2023-03-22T15:43:49;13.90;;;3.37;;
4278;SDS011;2153;47.744;10.580;2023-03-22T15:46:24;16.30;;;3.37;;
4278;SDS011;2153;47.744;10.580;2023-03-22T15:48:54;14.87;;;3.10;;
4278;SDS011;2153;47.744;10.580;2023-03-22T15:51:26;13.27;;;2.97;;
4278;SDS011;2153;47.744;10.580;2023-03-22T15:54:00;14.33;;;3.57;;
4278;SDS011;2153;47.744;10.580;2023-03-22T15:56:28;19.27;;;3.70;;
4278;SDS011;2153;47.744;10.580;2023-03-22T15:58:58;17.40;;;3.07;;
4278;SDS011;2153;47.744;10.580;2023-03-22T16:01:26;14.27;;;3.30;;
4278;SDS011;2153;47.744;10.580;2023-03-22T16:03:58;16.80;;;4.03;;
4278;SDS011;2153;47.744;10.580;2023-03-22T16:06:34;15.97;;;3.53;;
4278;SDS011;2153;47.744;10.580;2023-03-22T16:09:01;17.27;;;6.70;;
4278;SDS011;2153;47.744;10.580;2023-03-22T16:11:28;17.60;;;4.73;;
4278;SDS011;2153;47.744;10.580;2023-03-22T16:13:55;20.10;;;9.13;;
4278;SDS011;2153;47.744;10.580;2023-03-22T16:16:24;17.30;;;6.07;;
4278;SDS011;2153;47.744;10.580;2023-03-22T16:18:51;15.90;;;4.90;;
4278;SDS011;2153;47.744;10.580;2023-03-22T16:21:19;14.30;;;3.47;;
4278;SDS011;2153;47.744;10.580;2023-03-22T16:23:54;16.80;;;3.73;;
4278;SDS011;2153;47.744;10.580;2023-03-22T16:26:20;16.70;;;3.77;;
4278;SDS011;2153;47.744;10.580;2023-03-22T16:28:47;16.80;;;3.00;;
4278;SDS011;2153;47.744;10.580;2023-03-22T16:31:15;16.57;;;3.83;;
4278;SDS011;2153;47.744;10.580;2023-03-22T16:33:45;16.37;;;3.80;;
4278;SDS011;2153;47.744;10.580;2023-03-22T16:36:13;16.07;;;3.70;;
4278;SDS011;2153;47.744;10.580;2023-03-22T16:38:41;15.20;;;4.00;;
4278;SDS011;2153;47.744;10.580;2023-03-22T16:41:16;19.70;;;4.67;;
4278;SDS011;2153;47.744;10.580;2023-03-22T16:43:45;19.33;;;4.37;;
4278;SDS011;2153;47.744;10.580;2023-03-22T16:46:13;17.00;;;4.23;;
4278;SDS011;2153;47.744;10.580;2023-03-22T16:48:40;14.77;;;4.23;;
4278;SDS011;2153;47.744;10.580;2023-03-22T16:51:11;15.20;;;4.50;;
4278;SDS011;2153;47.744;10.580;2023-03-22T16:53:44;14.73;;;4.23;;
4278;SDS011;2153;47.744;10.580;2023-03-22T16:56:11;14.07;;;4.10;;
4278;SDS011;2153;47.744;10.580;2023-03-22T16:58:40;15.93;;;4.40;;
4278;SDS011;2153;47.744;10.580;2023-03-22T17:01:08;16.70;;;4.90;;
4278;SDS011;2153;47.744;10.580;2023-03-22T17:03:37;14.47;;;3.80;;
4278;SDS011;2153;47.744;10.580;2023-03-22T17:06:04;14.90;;;3.80;;
4278;SDS011;2153;47.744;10.580;2023-03-22T17:08:32;19.23;;;4.47;;
4278;SDS011;2153;47.744;10.580;2023-03-22T17:10:59;14.83;;;3.50;;
4278;SDS011;2153;47.744;10.580;2023-03-22T17:13:25;14.13;;;3.77;;
4278;SDS011;2153;47.744;10.580;2023-03-22T17:15:52;14.60;;;3.83;;
4278;SDS011;2153;47.744;10.580;2023-03-22T17:18:19;14.60;;;4.03;;
4278;SDS011;2153;47.744;10.580;2023-03-22T17:20:46;16.87;;;3.97;;
4278;SDS011;2153;47.744;10.580;2023-03-22T17:23:13;15.90;;;3.90;;
4278;SDS011;2153;47.744;10.580;2023-03-22T17:25:42;14.87;;;3.33;;
4278;SDS011;2153;47.744;10.580;2023-03-22T17:28:11;22.13;;;5.37;;
4278;SDS011;2153;47.744;10.580;2023-03-22T17:30:38;16.23;;;4.90;;
4278;SDS011;2153;47.744;10.580;2023-03-22T17:33:06;17.07;;;4.33;;
4278;SDS011;2153;47.744;10.580;2023-03-22T17:35:33;17.60;;;5.63;;
4278;SDS011;2153;47.744;10.580;2023-03-22T17:38:01;47.40;;;17.23;;
4278;SDS011;2153;47.744;10.580;2023-03-22T17:40:28;23.50;;;6.40;;
4278;SDS011;2153;47.744;10.580;2023-03-22T17:42:59;31.90;;;9.43;;
4278;SDS011;2153;47.744;10.580;2023-03-22T17:45:27;27.43;;;7.60;;
4278;SDS011;2153;47.744;10.580;2023-03-22T17:47:55;41.23;;;13.00;;
4278;SDS011;2153;47.744;10.580;2023-03-22T17:50:23;30.07;;;12.83;;
4278;SDS011;2153;47.744;10.580;2023-03-22T17:52:52;29.73;;;12.10;;
4278;SDS011;2153;47.744;10.580;2023-03-22T17:55:19;37.13;;;10.10;;
4278;SDS011;2153;47.744;10.580;2023-03-22T17:57:47;20.90;;;6.97;;
4278;SDS011;2153;47.744;10.580;2023-03-22T18:00:16;28.97;;;10.40;;
4278;SDS011;2153;47.744;10.580;2023-03-22T18:02:45;26.20;;;9.70;;
4278;SDS011;2153;47.744;10.580;2023-03-22T18:05:13;33.67;;;14.93;;
4278;SDS011;2153;47.744;10.580;2023-03-22T18:07:42;37.90;;;19.07;;
4278;SDS011;2153;47.744;10.580;2023-03-22T18:10:10;39.13;;;15.47;;
4278;SDS011;2153;47.744;10.580;2023-03-22T18:12:38;28.87;;;12.53;;
4278;SDS011;2153;47.744;10.580;2023-03-22T18:15:07;51.43;;;23.83;;
4278;SDS011;2153;47.744;10.580;2023-03-22T18:17:37;24.57;;;8.07;;
4278;SDS011;2153;47.744;10.580;2023-03-22T18:20:05;69.83;;;38.60;;
4278;SDS011;2153;47.744;10.580;2023-03-22T18:22:34;58.97;;;28.90;;
4278;SDS011;2153;47.744;10.580;2023-03-22T18:25:01;76.00;;;35.47;;
4278;SDS011;2153;47.744;10.580;2023-03-22T18:27:28;47.23;;;22.10;;